createdAt,value
2017-08-09T00:00:30.403Z,79.37
2017-08-09T00:02:59.507Z,79.45
2017-08-09T00:05:28.619Z,79.35
2017-08-09T00:07:57.692Z,78.96
2017-08-09T00:10:26.735Z,79.04
2017-08-09T00:12:55.813Z,78.83
2017-08-09T00:15:24.869Z,79.00
2017-08-09T00:17:53.945Z,78.88
2017-08-09T00:20:23.005Z,79.14
2017-08-09T00:22:52.079Z,78.80
2017-08-09T00:25:21.155Z,79.07
2017-08-09T00:27:50.224Z,79.29
2017-08-09T00:30:19.684Z,79.51
2017-08-09T00:32:48.730Z,79.14
2017-08-09T00:35:18.565Z,79.27
2017-08-09T00:37:47.927Z,79.26
2017-08-09T00:40:17.207Z,79.41
2017-08-09T00:42:46.288Z,79.10
2017-08-09T00:45:15.772Z,79.47
2017-08-09T00:47:44.863Z,78.95
2017-08-09T00:50:13.976Z,78.51
2017-08-09T00:52:43.053Z,78.35
2017-08-09T00:55:12.156Z,78.50
2017-08-09T00:57:41.473Z,78.54
2017-08-09T01:00:10.539Z,78.76
2017-08-09T01:02:40.574Z,78.92
2017-08-09T01:05:09.934Z,78.93
2017-08-09T01:07:38.998Z,78.68
2017-08-09T01:10:08.055Z,78.75
2017-08-09T01:12:37.121Z,78.92
2017-08-09T01:15:07.007Z,78.86
2017-08-09T01:17:36.133Z,78.96
2017-08-09T01:20:05.167Z,78.95
2017-08-09T01:22:34.247Z,78.90
2017-08-09T01:25:03.378Z,79.01
2017-08-09T01:27:32.442Z,79.17
2017-08-09T01:30:01.497Z,78.99
2017-08-09T01:32:31.344Z,79.26
2017-08-09T01:35:00.415Z,79.18
2017-08-09T01:37:30.247Z,79.11
2017-08-09T01:39:59.340Z,79.20
2017-08-09T01:42:28.406Z,79.29
2017-08-09T01:44:58.244Z,79.17
2017-08-09T01:47:27.328Z,79.00
2017-08-09T01:49:56.377Z,79.35
2017-08-09T01:52:25.516Z,79.38
2017-08-09T01:54:55.332Z,79.00
2017-08-09T01:57:24.379Z,79.07
2017-08-09T01:59:53.486Z,78.92
2017-08-09T02:02:22.512Z,78.85
2017-08-09T02:04:52.340Z,78.75
2017-08-09T02:07:21.423Z,78.63
2017-08-09T02:09:51.272Z,78.67
2017-08-09T02:12:21.077Z,78.88
2017-08-09T02:14:50.150Z,78.95
2017-08-09T02:17:19.503Z,79.20
2017-08-09T02:19:48.563Z,79.16
2017-08-09T02:22:17.628Z,79.34
2017-08-09T02:24:47.460Z,79.73
2017-08-09T02:27:16.533Z,79.83
2017-08-09T02:29:46.375Z,79.87
2017-08-09T02:32:15.484Z,79.85
2017-08-09T02:34:44.540Z,79.65
2017-08-09T02:37:14.497Z,79.81
2017-08-09T02:39:43.553Z,79.28
2017-08-09T02:42:13.408Z,79.47
2017-08-09T02:44:42.436Z,79.09
2017-08-09T02:47:12.839Z,79.34
2017-08-09T02:49:42.663Z,78.71
2017-08-09T02:52:11.860Z,78.59
2017-08-09T02:54:40.913Z,78.23
2017-08-09T02:57:09.970Z,78.55
2017-08-09T02:59:39.276Z,78.36
2017-08-09T03:02:08.384Z,78.54
2017-08-09T03:04:37.891Z,78.23
2017-08-09T03:07:07.740Z,78.59
2017-08-09T03:09:36.791Z,78.91
2017-08-09T03:12:06.646Z,78.64
2017-08-09T03:14:35.742Z,78.18
2017-08-09T03:17:05.107Z,78.50
2017-08-09T03:19:34.139Z,78.72
2017-08-09T03:22:03.184Z,78.52
2017-08-09T03:24:33.007Z,77.92
2017-08-09T03:27:02.063Z,78.36
2017-08-09T03:29:31.116Z,78.43
2017-08-09T03:32:00.903Z,78.49
2017-08-09T03:34:30.754Z,78.86
2017-08-09T03:36:59.809Z,78.11
2017-08-09T03:39:29.624Z,78.73
2017-08-09T03:41:59.474Z,78.54
2017-08-09T03:44:28.520Z,78.95
2017-08-09T03:46:57.599Z,78.40
2017-08-09T03:49:26.980Z,78.79
2017-08-09T03:51:56.023Z,79.21
2017-08-09T03:54:25.072Z,78.94
2017-08-09T03:56:54.118Z,78.58
2017-08-09T03:59:23.175Z,78.48
2017-08-09T04:01:52.251Z,78.77
2017-08-09T04:04:21.313Z,78.68
2017-08-09T04:06:50.375Z,79.10
2017-08-09T04:09:20.247Z,78.59
2017-08-09T04:11:49.323Z,78.81
2017-08-09T04:14:18.395Z,78.90
2017-08-09T04:16:47.447Z,79.03
2017-08-09T04:19:16.497Z,78.53
2017-08-09T04:21:46.335Z,78.60
2017-08-09T04:24:16.235Z,78.71
2017-08-09T04:26:45.319Z,78.84
2017-08-09T04:29:14.393Z,78.62
2017-08-09T04:31:43.473Z,78.94
2017-08-09T04:34:12.855Z,78.77
2017-08-09T04:36:41.985Z,78.47
2017-08-09T04:39:11.050Z,79.05
2017-08-09T04:41:40.112Z,78.72
2017-08-09T04:44:09.213Z,79.06
2017-08-09T04:46:38.267Z,78.46
2017-08-09T04:49:07.347Z,78.65
2017-08-09T04:51:36.437Z,78.50
2017-08-09T04:54:05.764Z,79.10
2017-08-09T04:56:34.848Z,79.11
2017-08-09T04:59:03.931Z,78.35
2017-08-09T05:01:32.983Z,78.09
2017-08-09T05:04:02.074Z,78.33
2017-08-09T05:06:31.128Z,78.12
2017-08-09T05:09:00.273Z,78.25
2017-08-09T05:11:29.572Z,78.22
2017-08-09T05:13:58.653Z,78.71
2017-08-09T05:16:27.692Z,78.48
2017-08-09T05:18:56.741Z,78.10
2017-08-09T05:21:25.816Z,78.31
2017-08-09T05:23:54.875Z,78.48
2017-08-09T05:26:23.916Z,77.65
2017-08-09T05:28:52.980Z,77.59
2017-08-09T05:31:22.055Z,77.89
2017-08-09T05:33:51.094Z,77.70
2017-08-09T05:36:20.167Z,77.56
2017-08-09T05:38:49.233Z,77.11
2017-08-09T05:41:18.356Z,76.87
2017-08-09T05:43:47.463Z,77.19
2017-08-09T05:46:16.551Z,77.30
2017-08-09T05:48:45.637Z,77.34
2017-08-09T05:51:14.724Z,77.56
2017-08-09T05:53:43.832Z,77.27
2017-08-09T05:56:13.273Z,77.25
2017-08-09T05:58:42.321Z,77.15
2017-08-09T06:01:11.398Z,77.41
2017-08-09T06:03:40.467Z,77.30
2017-08-09T06:06:09.526Z,77.66
2017-08-09T06:08:38.607Z,77.12
2017-08-09T06:11:07.651Z,76.51
2017-08-09T06:13:36.723Z,77.13
2017-08-09T06:16:05.808Z,77.49
2017-08-09T06:18:34.859Z,76.98
2017-08-09T06:21:03.970Z,76.95
2017-08-09T06:23:33.003Z,77.15
2017-08-09T06:26:02.084Z,76.65
2017-08-09T06:28:31.144Z,77.05
2017-08-09T06:31:00.211Z,76.18
2017-08-09T06:33:29.288Z,76.04
2017-08-09T06:35:58.357Z,76.46
2017-08-09T06:38:27.439Z,76.20
2017-08-09T06:40:56.475Z,76.34
2017-08-09T06:43:25.532Z,75.64
2017-08-09T06:45:54.611Z,75.86
2017-08-09T06:48:23.666Z,75.40
2017-08-09T06:50:52.743Z,75.51
2017-08-09T06:53:21.785Z,75.54
2017-08-09T06:55:50.850Z,76.67
2017-08-09T06:58:19.915Z,76.90
2017-08-09T07:00:48.975Z,76.65
2017-08-09T07:03:18.059Z,76.86
2017-08-09T07:05:47.111Z,76.47
2017-08-09T07:08:16.217Z,76.45
2017-08-09T07:10:45.295Z,76.49
2017-08-09T07:13:14.347Z,76.17
2017-08-09T07:15:43.414Z,75.67
2017-08-09T07:18:12.524Z,75.78
2017-08-09T07:20:41.555Z,74.25
2017-08-09T07:23:10.644Z,74.25
2017-08-09T07:25:39.697Z,74.32
2017-08-09T07:28:08.743Z,74.62
2017-08-09T07:30:37.802Z,73.61
2017-08-09T07:33:06.867Z,72.55
2017-08-09T07:35:35.917Z,71.48
2017-08-09T07:38:05.025Z,71.60
2017-08-09T07:40:34.038Z,69.14
2017-08-09T07:43:03.192Z,68.03
2017-08-09T07:45:32.272Z,64.64
2017-08-09T07:48:01.305Z,64.25
2017-08-09T07:50:30.372Z,64.66
2017-08-09T07:52:59.436Z,65.17
2017-08-09T07:55:28.501Z,63.79
2017-08-09T07:57:57.541Z,63.82
2017-08-09T08:00:26.608Z,63.96
2017-08-09T08:02:55.909Z,64.32
2017-08-09T08:05:24.973Z,63.97
2017-08-09T08:07:54.053Z,63.55
2017-08-09T08:10:23.173Z,62.97
2017-08-09T08:12:52.197Z,63.28
2017-08-09T08:15:21.250Z,63.31
2017-08-09T08:17:50.332Z,63.29
2017-08-09T08:20:19.369Z,61.65
2017-08-09T08:22:48.457Z,61.37
2017-08-09T08:25:17.502Z,62.68
2017-08-09T08:27:46.571Z,62.09
2017-08-09T08:30:15.634Z,63.07
2017-08-09T08:32:44.677Z,60.40
2017-08-09T08:35:13.750Z,61.10
2017-08-09T08:37:43.017Z,61.55
2017-08-09T08:40:12.136Z,60.89
2017-08-09T08:42:41.195Z,58.36
2017-08-09T08:45:10.508Z,59.09
2017-08-09T08:47:39.548Z,59.65
2017-08-09T08:50:08.667Z,58.69
2017-08-09T08:52:37.757Z,57.66
2017-08-09T08:55:06.798Z,57.66
2017-08-09T08:57:35.880Z,57.38
2017-08-09T09:00:04.960Z,56.07
2017-08-09T09:02:34.020Z,56.01
2017-08-09T09:05:03.087Z,54.69
2017-08-09T09:07:32.181Z,56.08
2017-08-09T09:10:01.223Z,56.43
2017-08-09T09:12:30.312Z,56.64
2017-08-09T09:14:59.361Z,54.72
2017-08-09T09:17:28.419Z,55.57
2017-08-09T09:19:57.511Z,54.44
2017-08-09T09:22:26.585Z,53.54
2017-08-09T09:24:56.511Z,53.91
2017-08-09T09:27:25.584Z,53.72
2017-08-09T09:29:54.654Z,53.29
2017-08-09T09:32:23.707Z,50.87
2017-08-09T09:34:52.766Z,51.35
2017-08-09T09:37:22.018Z,50.64
2017-08-09T09:39:51.076Z,51.51
2017-08-09T09:42:20.125Z,51.64
2017-08-09T09:44:49.198Z,52.60
2017-08-09T09:47:18.254Z,52.81
2017-08-09T09:49:47.360Z,51.31
2017-08-09T09:52:16.546Z,51.25
2017-08-09T09:54:45.592Z,51.02
2017-08-09T09:57:14.653Z,51.19
2017-08-09T09:59:43.732Z,50.49
2017-08-09T10:02:12.820Z,52.08
2017-08-09T10:04:41.836Z,52.37
2017-08-09T10:07:10.909Z,52.41
2017-08-09T10:09:39.951Z,51.68
2017-08-09T10:12:09.023Z,51.60
2017-08-09T10:14:38.091Z,52.31
2017-08-09T10:17:07.158Z,51.60
2017-08-09T10:19:36.243Z,52.90
2017-08-09T10:22:05.307Z,49.81
2017-08-09T10:24:34.376Z,51.49
2017-08-09T10:27:03.458Z,51.60
2017-08-09T10:29:32.504Z,49.07
2017-08-09T10:32:01.571Z,49.86
2017-08-09T10:34:30.606Z,50.64
2017-08-09T10:36:59.658Z,50.16
2017-08-09T10:39:28.717Z,48.63
2017-08-09T10:41:57.772Z,49.30
2017-08-09T10:44:26.828Z,49.00
2017-08-09T10:46:55.945Z,49.50
2017-08-09T10:49:24.971Z,47.86
2017-08-09T10:51:54.030Z,47.41
2017-08-09T10:54:23.092Z,47.43
2017-08-09T10:56:52.175Z,49.05
2017-08-09T10:59:21.244Z,51.71
2017-08-09T11:01:50.304Z,50.13
2017-08-09T11:04:19.348Z,47.90
2017-08-09T11:06:48.384Z,49.08
2017-08-09T11:09:17.470Z,47.27
2017-08-09T11:11:46.539Z,47.48
2017-08-09T11:14:15.708Z,46.61
2017-08-09T11:16:44.764Z,47.22
2017-08-09T11:19:13.853Z,45.21
2017-08-09T11:21:42.884Z,46.76
2017-08-09T11:24:11.964Z,47.27
2017-08-09T11:26:41.020Z,47.96
2017-08-09T11:29:10.075Z,48.69
2017-08-09T11:31:39.129Z,49.22
2017-08-09T11:34:08.264Z,48.03
2017-08-09T11:36:37.324Z,47.92
2017-08-09T11:39:06.417Z,46.45
2017-08-09T11:41:35.481Z,48.99
2017-08-09T11:44:04.544Z,48.59
2017-08-09T11:46:33.619Z,49.14
2017-08-09T11:49:02.686Z,47.15
2017-08-09T11:51:31.767Z,48.74
2017-08-09T11:54:00.829Z,48.18
2017-08-09T11:56:29.861Z,48.43
2017-08-09T11:58:58.944Z,49.07
2017-08-09T12:01:28.043Z,46.34
2017-08-09T12:03:57.087Z,46.79
2017-08-09T12:06:26.144Z,48.20
2017-08-09T12:08:55.185Z,47.38
2017-08-09T12:11:24.255Z,49.88
2017-08-09T12:13:53.352Z,48.55
2017-08-09T12:16:22.409Z,48.72
2017-08-09T12:18:51.554Z,48.24
2017-08-09T12:21:20.610Z,49.02
2017-08-09T12:23:49.656Z,49.59
2017-08-09T12:26:18.807Z,48.11
2017-08-09T12:28:47.888Z,47.79
2017-08-09T12:31:16.957Z,48.22
2017-08-09T12:33:46.019Z,49.09
2017-08-09T12:36:17.342Z,48.36
2017-08-09T12:38:46.375Z,47.54
2017-08-09T12:41:15.453Z,47.75
2017-08-09T12:43:44.499Z,49.63
2017-08-09T12:46:13.564Z,47.11
2017-08-09T12:48:42.635Z,47.97
2017-08-09T12:51:11.865Z,47.25
2017-08-09T12:53:40.932Z,45.86
2017-08-09T12:56:10.733Z,46.73
2017-08-09T12:58:39.800Z,46.56
2017-08-09T13:01:08.861Z,48.48
2017-08-09T13:03:37.956Z,49.03
2017-08-09T13:06:06.995Z,46.75
2017-08-09T13:08:36.052Z,45.93
2017-08-09T13:11:05.096Z,46.75
2017-08-09T13:13:34.163Z,46.88
2017-08-09T13:16:03.256Z,48.71
2017-08-09T13:18:32.314Z,48.16
2017-08-09T13:21:01.361Z,46.81
2017-08-09T13:23:30.403Z,45.24
2017-08-09T13:25:59.497Z,44.57
2017-08-09T13:28:28.576Z,44.96
2017-08-09T13:30:57.661Z,44.55
2017-08-09T13:33:27.533Z,45.94
2017-08-09T13:35:56.664Z,45.76
2017-08-09T13:38:25.724Z,45.69
2017-08-09T13:40:54.795Z,47.37
2017-08-09T13:43:23.864Z,47.33
2017-08-09T13:45:52.974Z,46.77
2017-08-09T13:48:22.089Z,45.24
2017-08-09T13:50:51.142Z,45.06
2017-08-09T13:53:20.218Z,45.23
2017-08-09T13:55:49.730Z,45.48
2017-08-09T13:58:18.775Z,46.16
2017-08-09T14:00:47.886Z,46.84
2017-08-09T14:03:16.935Z,47.49
2017-08-09T14:05:46.774Z,46.30
2017-08-09T14:08:15.842Z,46.99
2017-08-09T14:10:45.659Z,46.82
2017-08-09T14:13:15.533Z,47.06
2017-08-09T14:15:44.575Z,46.20
2017-08-09T14:18:14.427Z,44.12
2017-08-09T14:20:44.423Z,42.47
2017-08-09T14:23:13.797Z,40.78
2017-08-09T14:25:43.638Z,42.06
2017-08-09T14:28:13.218Z,41.77
2017-08-09T14:30:43.032Z,41.91
2017-08-09T14:33:12.911Z,43.09
2017-08-09T14:35:41.927Z,42.06
2017-08-09T14:38:11.772Z,41.91
2017-08-09T14:40:41.596Z,43.67
2017-08-09T14:43:10.919Z,42.66
2017-08-09T14:45:40.177Z,43.50
2017-08-09T14:48:09.264Z,44.05
2017-08-09T14:50:39.074Z,43.80
2017-08-09T14:53:08.922Z,43.65
2017-08-09T14:55:37.975Z,43.21
2017-08-09T14:58:07.831Z,43.72
2017-08-09T15:00:36.872Z,43.50
2017-08-09T15:03:05.944Z,44.45
2017-08-09T15:05:35.033Z,44.60
2017-08-09T15:08:04.084Z,43.73
2017-08-09T15:10:33.148Z,45.04
2017-08-09T15:13:02.247Z,41.56
2017-08-09T15:15:31.334Z,42.47
2017-08-09T15:18:00.508Z,42.77
2017-08-09T15:20:30.153Z,43.67
2017-08-09T15:22:59.992Z,43.85
2017-08-09T15:25:29.072Z,42.82
2017-08-09T15:27:58.119Z,43.68
2017-08-09T15:30:27.167Z,44.27
2017-08-09T15:32:56.248Z,43.37
2017-08-09T15:35:26.353Z,42.93
2017-08-09T15:37:55.418Z,43.60
2017-08-09T15:40:24.479Z,43.03
2017-08-09T15:42:54.371Z,43.15
2017-08-09T15:45:24.188Z,43.21
2017-08-09T15:47:54.023Z,44.17
2017-08-09T15:50:23.537Z,42.99
2017-08-09T15:52:54.512Z,42.75
2017-08-09T15:55:23.553Z,42.55
2017-08-09T15:57:53.371Z,43.52
2017-08-09T16:00:22.435Z,42.78
2017-08-09T16:02:51.508Z,42.29
2017-08-09T16:05:20.564Z,43.02
2017-08-09T16:07:50.380Z,42.82
2017-08-09T16:10:19.931Z,42.85
2017-08-09T16:12:48.978Z,44.92
2017-08-09T16:15:18.070Z,44.22
2017-08-09T16:17:47.143Z,44.31
2017-08-09T16:20:16.968Z,44.07
2017-08-09T16:22:46.871Z,43.32
2017-08-09T16:25:15.935Z,43.45
2017-08-09T16:27:45.006Z,43.25
2017-08-09T16:30:14.071Z,43.34
2017-08-09T16:32:43.918Z,42.89
2017-08-09T16:35:12.980Z,42.62
2017-08-09T16:37:42.080Z,43.58
2017-08-09T16:40:11.129Z,43.24
2017-08-09T16:42:40.206Z,44.03
2017-08-09T16:45:09.715Z,43.84
2017-08-09T16:47:38.792Z,44.33
2017-08-09T16:50:07.863Z,44.22
2017-08-09T16:52:37.678Z,44.55
2017-08-09T16:55:06.914Z,43.96
2017-08-09T16:57:35.972Z,44.81
2017-08-09T17:00:05.061Z,44.73
2017-08-09T17:02:34.888Z,45.08
2017-08-09T17:05:03.974Z,46.22
2017-08-09T17:07:33.029Z,45.60
2017-08-09T17:10:02.090Z,46.20
2017-08-09T17:12:31.179Z,46.76
2017-08-09T17:15:00.237Z,45.91
2017-08-09T17:17:30.168Z,46.33
2017-08-09T17:20:00.018Z,45.75
2017-08-09T17:22:29.062Z,45.82
2017-08-09T17:24:58.917Z,45.10
2017-08-09T17:27:27.974Z,45.28
2017-08-09T17:29:57.824Z,45.36
2017-08-09T17:32:26.901Z,46.04
2017-08-09T17:34:55.944Z,46.40
2017-08-09T17:37:25.016Z,45.27
2017-08-09T17:39:54.078Z,45.27
2017-08-09T17:42:23.151Z,45.59
2017-08-09T17:44:52.984Z,45.01
2017-08-09T17:47:22.040Z,45.92
2017-08-09T17:49:51.100Z,46.18
2017-08-09T17:52:21.042Z,46.09
2017-08-09T17:54:50.132Z,46.40
2017-08-09T17:57:19.204Z,46.96
2017-08-09T17:59:48.284Z,47.26
2017-08-09T18:02:17.374Z,47.30
2017-08-09T18:04:47.613Z,47.65
2017-08-09T18:07:16.676Z,47.85
2017-08-09T18:09:46.498Z,47.71
2017-08-09T18:12:15.640Z,47.37
2017-08-09T18:14:44.685Z,48.43
2017-08-09T18:17:13.775Z,49.01
2017-08-09T18:19:43.612Z,49.00
2017-08-09T18:22:13.519Z,49.22
2017-08-09T18:24:42.620Z,49.39
2017-08-09T18:27:11.667Z,49.80
2017-08-09T18:29:40.733Z,49.45
2017-08-09T18:32:09.820Z,50.14
2017-08-09T18:34:38.873Z,50.17
2017-08-09T18:37:09.399Z,50.51
2017-08-09T18:39:39.248Z,50.30
2017-08-09T18:42:08.313Z,50.64
2017-08-09T18:44:38.124Z,50.90
2017-08-09T18:47:08.015Z,50.91
2017-08-09T18:49:37.052Z,51.32
2017-08-09T18:52:06.173Z,51.42
2017-08-09T18:54:35.244Z,51.84
2017-08-09T18:57:04.325Z,52.31
2017-08-09T18:59:34.149Z,52.49
2017-08-09T19:02:03.211Z,52.68
2017-08-09T19:04:32.292Z,52.48
2017-08-09T19:07:01.372Z,52.46
2017-08-09T19:09:30.510Z,52.89
2017-08-09T19:11:59.558Z,53.19
2017-08-09T19:14:28.620Z,53.22
2017-08-09T19:16:57.695Z,53.42
2017-08-09T19:19:27.515Z,53.55
2017-08-09T19:21:56.600Z,54.02
2017-08-09T19:24:26.445Z,53.81
2017-08-09T19:26:55.527Z,54.89
2017-08-09T19:29:24.594Z,54.58
2017-08-09T19:31:53.640Z,54.47
2017-08-09T19:34:22.697Z,54.62
2017-08-09T19:36:52.544Z,54.57
2017-08-09T19:39:21.594Z,54.39
2017-08-09T19:41:50.670Z,54.33
2017-08-09T19:44:19.712Z,54.56
2017-08-09T19:46:48.785Z,54.96
2017-08-09T19:49:17.913Z,54.89
2017-08-09T19:51:46.972Z,54.93
2017-08-09T19:54:16.110Z,55.34
2017-08-09T19:56:45.151Z,55.44
2017-08-09T19:59:14.240Z,55.45
2017-08-09T20:01:43.324Z,55.57
2017-08-09T20:04:12.379Z,55.60
2017-08-09T20:06:41.437Z,55.75
2017-08-09T20:09:10.524Z,56.12
2017-08-09T20:11:40.420Z,56.23
2017-08-09T20:14:09.553Z,56.37
2017-08-09T20:16:40.252Z,56.44
2017-08-09T20:19:09.314Z,56.95
2017-08-09T20:21:38.390Z,56.63
2017-08-09T20:24:08.272Z,57.00
2017-08-09T20:26:38.416Z,56.78
2017-08-09T20:29:07.448Z,58.42
2017-08-09T20:31:36.480Z,58.69
2017-08-09T20:34:05.540Z,58.37
2017-08-09T20:36:34.645Z,59.25
2017-08-09T20:39:03.857Z,59.23
2017-08-09T20:41:32.954Z,59.04
2017-08-09T20:44:02.016Z,59.40
2017-08-09T20:46:31.057Z,59.75
2017-08-09T20:49:00.131Z,60.59
2017-08-09T20:51:29.541Z,61.27
2017-08-09T20:53:58.613Z,61.53
2017-08-09T20:56:27.683Z,61.76
2017-08-09T20:58:57.001Z,62.18
2017-08-09T21:01:26.664Z,62.84
2017-08-09T21:03:55.707Z,62.41
2017-08-09T21:06:24.770Z,62.24
2017-08-09T21:08:53.827Z,62.24
2017-08-09T21:11:22.924Z,62.50
2017-08-09T21:13:51.987Z,62.30
2017-08-09T21:16:21.035Z,62.97
2017-08-09T21:18:51.137Z,62.60
2017-08-09T21:21:20.185Z,62.47
2017-08-09T21:23:49.244Z,62.36
2017-08-09T21:26:19.054Z,63.17
2017-08-09T21:28:49.014Z,63.73
2017-08-09T21:31:18.080Z,63.69
2017-08-09T21:33:47.901Z,63.57
2017-08-09T21:36:16.964Z,63.38
2017-08-09T21:38:46.903Z,63.44
2017-08-09T21:41:16.763Z,63.54
2017-08-09T21:43:45.827Z,64.01
2017-08-09T21:46:14.881Z,66.77
2017-08-09T21:48:43.926Z,66.90
2017-08-09T21:51:13.015Z,66.19
2017-08-09T21:53:42.082Z,65.78
2017-08-09T21:56:11.902Z,65.83
2017-08-09T21:58:41.720Z,65.98
2017-08-09T22:01:10.781Z,66.27
2017-08-09T22:03:39.823Z,65.91
2017-08-09T22:06:08.917Z,66.65
2017-08-09T22:08:37.981Z,68.10
2017-08-09T22:11:07.832Z,67.57
2017-08-09T22:13:36.890Z,68.33
2017-08-09T22:16:05.935Z,68.23
2017-08-09T22:18:35.021Z,68.03
2017-08-09T22:21:04.093Z,67.92
2017-08-09T22:23:33.147Z,68.32
2017-08-09T22:26:02.213Z,69.57
2017-08-09T22:28:31.253Z,69.47
2017-08-09T22:31:00.310Z,69.20
2017-08-09T22:33:29.401Z,69.04
2017-08-09T22:35:58.445Z,68.69
2017-08-09T22:38:27.504Z,68.79
2017-08-09T22:40:56.551Z,69.03
2017-08-09T22:43:25.635Z,69.65
2017-08-09T22:45:55.440Z,69.59
2017-08-09T22:48:25.284Z,69.19
2017-08-09T22:50:54.343Z,69.42
2017-08-09T22:53:23.423Z,69.92
2017-08-09T22:55:52.455Z,70.48
2017-08-09T22:58:21.516Z,70.86
2017-08-09T23:00:50.604Z,70.73
2017-08-09T23:03:19.645Z,70.94
2017-08-09T23:05:48.729Z,71.15
2017-08-09T23:08:18.536Z,70.78
2017-08-09T23:10:48.376Z,70.51
2017-08-09T23:13:17.423Z,70.69
2017-08-09T23:15:46.461Z,70.80
2017-08-09T23:18:15.530Z,70.65
2017-08-09T23:20:45.442Z,70.45
2017-08-09T23:23:15.282Z,70.65
2017-08-09T23:25:44.336Z,70.53
2017-08-09T23:28:13.410Z,70.02
2017-08-09T23:30:42.649Z,69.35
2017-08-09T23:33:12.488Z,69.39
2017-08-09T23:35:41.706Z,69.52
2017-08-09T23:38:10.798Z,69.58
2017-08-09T23:40:39.868Z,69.79
2017-08-09T23:43:08.947Z,70.26
2017-08-09T23:45:38.772Z,69.95
2017-08-09T23:48:08.642Z,69.76
2017-08-09T23:50:38.436Z,69.07
2017-08-09T23:53:07.506Z,69.07
2017-08-09T23:55:36.566Z,68.84
2017-08-09T23:58:06.408Z,69.67
